Time;durP1;ratioP1;P1;durP2;ratioP2;P2;SDS_P1;SDS_P2;PMS_P1;PMS_P2;Temp;Humidity;BMP_temperature;BMP_pressure;BME280_temperature;BME280_humidity;BME280_pressure;Samples;Min_cycle;Max_cycle;Signal;HPM_P1;HPM_P2
2022/03/10 00:00:35;;;;;;;18.48;8.18;;;;;;;-0.23;67.07;101210.19;1983933;72;21059;-64
2022/03/10 00:03:04;;;;;;;15.95;7.05;;;;;;;-0.25;67.21;101211.45;1983962;72;21090;-64
2022/03/10 00:05:34;;;;;;;15.45;7.45;;;;;;;-0.26;67.04;101211.43;1980467;72;21019;-65
2022/03/10 00:08:03;;;;;;;16.27;7.67;;;;;;;-0.30;66.91;101211.81;1983944;72;21000;-65
2022/03/10 00:10:33;;;;;;;16.12;7.53;;;;;;;-0.33;66.99;101213.48;1984030;72;21090;-62
2022/03/10 00:13:01;;;;;;;19.73;7.65;;;;;;;-0.39;67.22;101203.93;1984142;72;21071;-64
2022/03/10 00:15:30;;;;;;;13.98;6.58;;;;;;;-0.42;67.24;101206.06;1982513;72;21031;-61
2022/03/10 00:18:02;;;;;;;13.08;6.00;;;;;;;-0.44;67.24;101199.14;1984061;72;21112;-61
2022/03/10 00:20:29;;;;;;;15.38;6.95;;;;;;;-0.46;67.30;101196.53;1981022;72;21015;-64
2022/03/10 00:22:58;;;;;;;16.05;6.97;;;;;;;-0.45;67.18;101200.84;1983811;72;21035;-62
2022/03/10 00:25:27;;;;;;;18.15;6.97;;;;;;;-0.47;67.15;101202.53;1983884;72;21023;-66
2022/03/10 00:27:55;;;;;;;16.62;6.85;;;;;;;-0.50;67.19;101196.05;1983878;72;21055;-65
2022/03/10 00:30:24;;;;;;;16.07;6.50;;;;;;;-0.53;67.31;101197.29;1982685;72;21106;-64
2022/03/10 00:32:53;;;;;;;15.60;7.35;;;;;;;-0.55;67.38;101204.16;1982594;72;21168;-65
2022/03/10 00:35:25;;;;;;;12.78;6.67;;;;;;;-0.55;67.54;101200.28;1982482;72;21523;-63
2022/03/10 00:37:54;;;;;;;17.17;7.25;;;;;;;-0.54;67.45;101200.71;1984269;72;21019;-63
2022/03/10 00:40:24;;;;;;;19.67;8.25;;;;;;;-0.61;67.69;101196.30;1984195;72;21116;-64
2022/03/10 00:42:53;;;;;;;23.22;8.68;;;;;;;-0.64;67.94;101193.69;1984357;72;21028;-64
2022/03/10 00:45:21;;;;;;;19.75;7.20;;;;;;;-0.67;68.03;101191.05;1973739;72;21112;-66
2022/03/10 00:47:50;;;;;;;23.38;6.05;;;;;;;-0.67;67.91;101192.34;1963621;72;21096;-64
2022/03/10 00:50:20;;;;;;;18.48;7.83;;;;;;;-0.71;67.85;101190.13;1922523;74;21153;-63
2022/03/10 00:52:49;;;;;;;21.25;7.28;;;;;;;-0.76;67.94;101185.74;1939333;74;21027;-64
2022/03/10 00:55:19;;;;;;;16.70;7.17;;;;;;;-0.77;67.96;101184.88;1904165;75;21032;-63
2022/03/10 00:57:49;;;;;;;15.78;7.37;;;;;;;-0.79;68.03;101180.98;1939206;74;21471;-61
2022/03/10 01:00:19;;;;;;;23.57;7.10;;;;;;;-0.83;68.08;101176.61;1903829;75;21541;-65
2022/03/10 01:02:47;;;;;;;17.60;7.83;;;;;;;-0.87;68.17;101170.92;1939348;74;21412;-61
2022/03/10 01:05:16;;;;;;;22.73;8.25;;;;;;;-0.90;68.33;101176.50;1904025;75;21047;-61
2022/03/10 01:07:45;;;;;;;20.10;7.50;;;;;;;-0.93;68.39;101179.89;1939413;74;21075;-64
2022/03/10 01:10:16;;;;;;;13.48;7.00;;;;;;;-0.97;68.49;101179.41;1904003;75;21040;-62
2022/03/10 01:12:45;;;;;;;17.10;7.55;;;;;;;-1.00;68.53;101177.66;1939267;74;21097;-63
2022/03/10 01:15:16;;;;;;;18.67;8.73;;;;;;;-1.01;68.61;101182.80;1903713;75;21577;-63
2022/03/10 01:17:46;;;;;;;17.55;7.30;;;;;;;-1.04;68.79;101177.58;1984243;72;21632;-61
2022/03/10 01:20:14;;;;;;;26.20;7.10;;;;;;;-1.07;68.77;101181.39;1984240;72;21466;-61
2022/03/10 01:22:43;;;;;;;19.30;7.55;;;;;;;-1.08;68.82;101182.25;1983177;72;21092;-59
2022/03/10 01:25:13;;;;;;;21.57;7.87;;;;;;;-1.09;68.97;101176.63;1983916;72;21014;-59
2022/03/10 01:27:42;;;;;;;15.00;7.40;;;;;;;-1.09;69.05;101171.02;1900093;75;21160;-65
2022/03/10 01:30:12;;;;;;;16.77;6.78;;;;;;;-1.07;69.19;101177.52;1938165;74;21068;-66
2022/03/10 01:32:41;;;;;;;21.05;7.83;;;;;;;-1.06;69.31;101176.69;1949497;73;21043;-64
2022/03/10 01:35:11;;;;;;;15.88;7.15;;;;;;;-1.05;69.33;101180.59;1956109;73;20996;-62
2022/03/10 01:37:40;;;;;;;18.15;7.30;;;;;;;-1.05;69.29;101177.11;1955984;73;21466;-62
2022/03/10 01:40:12;;;;;;;20.32;8.18;;;;;;;-1.07;69.31;101169.77;1955974;72;21462;-62
2022/03/10 01:42:42;;;;;;;16.82;6.55;;;;;;;-1.09;69.36;101177.48;1953902;73;21019;-66
2022/03/10 01:45:12;;;;;;;20.75;7.30;;;;;;;-1.11;69.31;101173.16;1955995;73;21451;-64
2022/03/10 01:47:42;;;;;;;14.90;7.30;;;;;;;-1.12;69.23;101177.45;1954323;73;21015;-66
2022/03/10 01:50:14;;;;;;;18.05;7.75;;;;;;;-1.15;69.42;101176.54;1955982;73;21486;-64
2022/03/10 01:52:43;;;;;;;18.95;7.25;;;;;;;-1.18;69.67;101182.51;1955949;73;21105;-64
2022/03/10 01:55:12;;;;;;;26.45;7.72;;;;;;;-1.19;69.74;101185.95;1956002;72;21117;-65
2022/03/10 01:57:43;;;;;;;17.85;6.85;;;;;;;-1.23;69.81;101187.62;1954189;73;21093;-65
2022/03/10 02:00:14;;;;;;;28.95;7.17;;;;;;;-1.24;69.79;101183.28;1956134;73;20999;-64
2022/03/10 02:02:43;;;;;;;16.67;7.10;;;;;;;-1.25;69.83;101186.73;1954267;73;21085;-64
2022/03/10 02:05:12;;;;;;;15.58;7.53;;;;;;;-1.27;69.68;101181.96;1955944;73;21070;-60
2022/03/10 02:10:29;;;;;;;21.20;8.10;;;;;;;-1.30;69.63;101192.23;1956034;72;21075;-62
2022/03/10 02:12:58;;;;;;;19.67;8.15;;;;;;;-1.33;69.67;101197.34;1954315;73;21511;-60
2022/03/10 02:18:22;;;;;;;23.57;8.78;;;;;;;-1.37;69.89;101208.03;1953844;73;21585;-62
2022/03/10 02:20:50;;;;;;;24.60;9.70;;;;;;;-1.37;70.18;101199.43;1956221;72;21125;-62
2022/03/10 02:23:20;;;;;;;14.68;8.50;;;;;;;-1.42;70.13;101204.53;1956076;72;21023;-60
2022/03/10 02:25:48;;;;;;;22.45;7.72;;;;;;;-1.46;70.19;101201.42;1955911;72;21032;-60
2022/03/10 02:28:18;;;;;;;35.20;8.93;;;;;;;-1.46;69.97;101200.56;1951356;72;21032;-61
2022/03/10 02:30:47;;;;;;;24.02;8.98;;;;;;;-1.49;69.99;101200.53;1955945;73;21122;-62
2022/03/10 02:33:15;;;;;;;16.50;8.13;;;;;;;-1.52;70.20;101203.91;1962277;73;20988;-60
2022/03/10 02:35:44;;;;;;;21.45;8.63;;;;;;;-1.53;70.28;101196.13;1982413;72;21509;-63
2022/03/10 02:38:18;;;;;;;29.85;8.20;;;;;;;-1.53;70.29;101194.83;1986025;72;21116;-62
2022/03/10 02:40:47;;;;;;;;;;;;;;;-1.53;70.38;101193.55;1988887;72;20999;-70
2022/03/10 02:43:16;;;;;;;16.40;8.23;;;;;;;-1.52;70.20;101194.86;1985284;72;20369;-62
2022/03/10 02:45:47;;;;;;;18.82;8.20;;;;;;;-1.58;70.34;101194.34;1971068;73;21527;-61
2022/03/10 02:48:16;;;;;;;23.92;8.68;;;;;;;-1.60;70.47;101194.73;1891533;76;21574;-61
2022/03/10 02:50:46;;;;;;;16.50;7.90;;;;;;;-1.61;70.46;101186.52;1891466;76;21446;-61
2022/03/10 02:53:16;;;;;;;18.12;8.10;;;;;;;-1.64;70.48;101187.78;1891458;76;21603;-63
2022/03/10 02:55:45;;;;;;;19.62;8.28;;;;;;;-1.66;70.60;101188.58;1891411;76;21600;-61
2022/03/10 02:58:14;;;;;;;30.68;9.33;;;;;;;-1.71;70.76;101183.77;1894919;74;21559;-63
2022/03/10 03:00:43;;;;;;;28.00;9.10;;;;;;;-1.73;70.86;101185.03;1962256;73;21042;-61
2022/03/10 03:03:12;;;;;;;20.62;8.33;;;;;;;-1.74;70.83;101185.86;1962185;73;21051;-63
2022/03/10 03:05:40;;;;;;;21.27;8.95;;;;;;;-1.77;70.87;101188.38;1965668;71;21112;-62
2022/03/10 03:08:09;;;;;;;21.35;8.85;;;;;;;-1.80;71.03;101193.50;1926228;74;21007;-60
2022/03/10 03:10:38;;;;;;;21.97;9.35;;;;;;;-1.82;71.09;101190.02;1992180;71;21046;-63
2022/03/10 03:13:07;;;;;;;23.22;9.38;;;;;;;-1.85;71.03;101186.09;1955724;73;21031;-60
2022/03/10 03:15:36;;;;;;;18.95;9.23;;;;;;;-1.86;71.00;101189.49;1993017;71;21496;-62
2022/03/10 03:18:04;;;;;;;18.80;8.40;;;;;;;-1.86;71.04;101185.63;1955633;73;21114;-63
2022/03/10 03:20:33;;;;;;;19.45;8.45;;;;;;;-1.86;71.01;101189.49;1992869;72;21046;-64
2022/03/10 03:23:02;;;;;;;24.02;9.40;;;;;;;-1.87;71.07;101188.63;1955683;73;21536;-63
2022/03/10 03:25:31;;;;;;;24.55;9.50;;;;;;;-1.89;71.14;101188.16;1993590;71;21546;-63
2022/03/10 03:28:00;;;;;;;23.27;9.90;;;;;;;-1.92;71.17;101180.35;1955793;73;21031;-64
2022/03/10 03:30:28;;;;;;;19.70;9.25;;;;;;;-1.85;71.13;101188.66;1983041;71;21031;-63
2022/03/10 03:32:57;;;;;;;21.95;8.88;;;;;;;-1.83;71.13;101192.14;1926173;73;21055;-63
2022/03/10 03:35:26;;;;;;;24.35;9.25;;;;;;;-1.78;70.91;101184.93;1962272;73;21481;-64
2022/03/10 03:37:55;;;;;;;23.10;10.05;;;;;;;-1.72;70.84;101187.19;1926198;74;21120;-64
2022/03/10 03:40:24;;;;;;;21.52;10.50;;;;;;;-1.65;71.01;101186.03;1977382;71;21092;-63
2022/03/10 03:42:52;;;;;;;24.98;9.55;;;;;;;-1.58;71.24;101185.30;1992670;72;21043;-63
2022/03/10 03:45:21;;;;;;;25.08;9.38;;;;;;;-1.48;71.29;101188.05;1993531;71;20983;-62
2022/03/10 03:47:50;;;;;;;23.42;10.18;;;;;;;-1.42;71.32;101182.97;1955502;73;21031;-63
2022/03/10 03:50:18;;;;;;;24.27;9.20;;;;;;;-1.36;71.23;101182.66;1992819;72;21108;-63
2022/03/10 03:52:47;;;;;;;23.87;9.65;;;;;;;-1.30;71.30;101174.58;1955649;73;21139;-65
2022/03/10 03:55:16;;;;;;;25.05;10.90;;;;;;;-1.26;71.27;101180.23;1992872;71;21035;-67
2022/03/10 03:57:45;;;;;;;24.72;11.08;;;;;;;-1.23;71.24;101182.87;1992756;72;21055;-65
2022/03/10 04:00:19;;;;;;;19.35;9.03;;;;;;;-1.23;71.34;101187.62;1992698;72;21022;-65
2022/03/10 04:02:44;;;;;;;26.15;9.98;;;;;;;-1.13;71.13;101186.48;1929873;73;20996;-66
2022/03/10 04:05:13;;;;;;;22.55;10.45;;;;;;;-1.03;70.92;101189.23;1962224;73;21472;-66
2022/03/10 04:07:42;;;;;;;27.60;11.70;;;;;;;-0.94;70.78;101192.39;1962455;73;21027;-64
2022/03/10 04:10:11;;;;;;;22.02;9.50;;;;;;;-0.87;70.72;101185.14;1962136;73;21159;-65
2022/03/10 04:12:40;;;;;;;25.30;10.72;;;;;;;-0.82;70.72;101187.38;1925980;73;21035;-65
2022/03/10 04:15:09;;;;;;;22.70;10.90;;;;;;;-0.76;70.63;101193.50;1962200;73;20996;-63
2022/03/10 04:17:38;;;;;;;19.35;9.85;;;;;;;-0.73;70.67;101197.44;1977603;71;21034;-61
2022/03/10 04:20:12;;;;;;;19.50;9.33;;;;;;;-0.69;70.73;101194.04;1992597;72;21096;-63
2022/03/10 04:22:38;;;;;;;27.27;10.50;;;;;;;-0.64;70.66;101201.02;1954992;73;21187;-65
2022/03/10 04:25:13;;;;;;;26.93;11.05;;;;;;;-0.57;70.60;101194.62;1992702;72;21062;-61
2022/03/10 04:27:39;;;;;;;19.80;9.55;;;;;;;-0.51;70.50;101200.77;1980682;71;21140;-63
2022/03/10 04:30:09;;;;;;;25.37;10.78;;;;;;;-0.46;70.38;101204.69;1962399;72;21074;-64
2022/03/10 04:32:46;;;;;;;22.98;9.33;;;;;;;-0.43;70.22;101200.43;1941100;73;21165;-62
2022/03/10 04:35:17;;;;;;;24.52;9.75;;;;;;;-0.36;70.08;101207.86;1939232;74;21157;-62
2022/03/10 04:37:47;;;;;;;23.32;10.28;;;;;;;-0.32;69.94;101202.30;1903982;75;21008;-63
2022/03/10 04:40:16;;;;;;;23.57;8.68;;;;;;;-0.27;69.93;101196.77;1939076;73;21102;-62
2022/03/10 04:42:46;;;;;;;31.17;11.43;;;;;;;-0.23;69.88;101207.59;1902905;75;21435;-59
2022/03/10 04:45:15;;;;;;;20.90;10.95;;;;;;;-0.22;69.73;101200.30;1984114;72;21485;-61
2022/03/10 04:47:43;;;;;;;25.77;11.15;;;;;;;-0.20;69.68;101211.53;1984107;72;21494;-63
2022/03/10 04:50:14;;;;;;;23.87;10.15;;;;;;;-0.17;69.59;101211.55;1984116;72;21051;-59
2022/03/10 04:52:44;;;;;;;35.55;16.87;;;;;;;-0.09;69.51;101210.34;1981899;72;20999;-61
2022/03/10 04:55:13;;;;;;;22.73;10.90;;;;;;;-0.04;69.54;101212.16;1984155;72;21092;-60
2022/03/10 04:57:42;;;;;;;37.78;13.10;;;;;;;0.02;69.47;101213.06;1984294;72;21430;-62
2022/03/10 05:00:13;;;;;;;22.55;10.25;;;;;;;0.08;69.39;101216.61;1984143;72;21619;-63
2022/03/10 05:02:42;;;;;;;34.90;12.28;;;;;;;0.15;69.27;101212.38;1984087;72;21019;-61
2022/03/10 05:05:14;;;;;;;26.42;12.00;;;;;;;0.21;69.13;101212.44;1984094;72;21441;-60
2022/03/10 05:07:43;;;;;;;30.55;11.78;;;;;;;0.22;69.16;101214.59;1982899;72;21105;-59
2022/03/10 05:10:13;;;;;;;25.62;11.20;;;;;;;0.20;69.46;101217.16;1984123;72;21023;-62
2022/03/10 05:12:47;;;;;;;22.32;9.70;;;;;;;0.22;69.56;101221.06;1984071;72;21027;-62
2022/03/10 05:15:19;;;;;;;29.25;13.08;;;;;;;0.27;69.45;101221.56;1983570;72;21105;-62
2022/03/10 05:17:48;;;;;;;29.92;12.90;;;;;;;0.33;69.33;101226.83;1981592;72;21023;-62
2022/03/10 05:20:17;;;;;;;26.80;11.60;;;;;;;0.41;69.52;101227.31;1984140;72;21043;-60
2022/03/10 05:22:55;;;;;;;24.02;11.50;;;;;;;0.48;69.49;101225.22;1984265;72;21027;-60
2022/03/10 05:25:27;;;;;;;27.82;10.98;;;;;;;0.48;69.48;101220.94;1984160;72;21026;-62
2022/03/10 05:27:55;;;;;;;25.57;12.13;;;;;;;0.42;69.60;101225.17;1981812;72;21072;-62
2022/03/10 05:30:24;;;;;;;27.42;12.88;;;;;;;0.44;69.64;101228.64;1984126;72;21105;-60
2022/03/10 05:45:41;;;;;;;31.33;12.18;;;;;;;1.18;70.99;101233.19;2034642;69;22129;-61
2022/03/10 05:48:10;;;;;;;29.02;12.07;;;;;;;1.26;70.51;101223.31;1980230;72;21019;-61
2022/03/10 05:50:39;;;;;;;27.73;12.68;;;;;;;1.42;70.14;101219.11;1981887;72;21112;-59
2022/03/10 05:53:07;;;;;;;29.18;12.58;;;;;;;1.54;69.84;101225.64;1978761;72;21051;-62
2022/03/10 05:55:36;;;;;;;23.92;11.65;;;;;;;1.56;69.51;101222.20;1979746;72;21039;-61
2022/03/10 05:58:05;;;;;;;26.42;12.45;;;;;;;1.58;69.34;101216.59;1979785;71;21542;-63
2022/03/10 06:00:33;;;;;;;29.25;13.68;;;;;;;1.64;69.08;101216.20;1975616;72;21015;-61
2022/03/10 06:03:02;;;;;;;28.12;13.95;;;;;;;1.85;69.12;101212.83;1969064;72;21096;-64
2022/03/10 06:05:31;;;;;;;28.83;12.65;;;;;;;2.11;69.00;101214.67;1974770;72;21047;-64
2022/03/10 06:08:00;;;;;;;31.80;13.45;;;;;;;2.28;68.47;101212.98;1973106;72;21059;-64
2022/03/10 06:10:29;;;;;;;30.37;13.55;;;;;;;2.35;68.05;101216.91;1982084;71;21027;-66
2022/03/10 06:12:58;;;;;;;25.77;11.57;;;;;;;2.24;67.95;101217.73;1983080;71;21008;-61
2022/03/10 06:15:27;;;;;;;27.07;12.58;;;;;;;2.11;67.62;101222.46;1985479;71;21486;-60
2022/03/10 06:17:56;;;;;;;28.50;13.35;;;;;;;1.93;67.40;101222.81;1979198;71;21027;-62
2022/03/10 06:20:25;;;;;;;26.93;13.48;;;;;;;1.76;67.40;101225.77;1976840;72;21051;-59
2022/03/10 06:22:54;;;;;;;35.45;14.33;;;;;;;1.63;67.49;101231.77;1973692;72;21486;-58
2022/03/10 06:25:22;;;;;;;33.08;15.70;;;;;;;1.52;67.53;101224.77;1974139;72;21130;-61
2022/03/10 06:27:51;;;;;;;38.00;16.82;;;;;;;1.44;67.80;101225.58;1979938;71;21520;-62
2022/03/10 06:30:20;;;;;;;42.83;16.97;;;;;;;1.45;67.90;101228.62;1974824;72;21003;-60
2022/03/10 06:32:49;;;;;;;34.60;15.35;;;;;;;1.46;67.75;101227.34;1970880;72;21072;-59
2022/03/10 06:35:17;;;;;;;35.95;15.85;;;;;;;1.45;67.74;101228.62;1974129;72;21430;-60
2022/03/10 06:37:46;;;;;;;35.58;16.80;;;;;;;1.42;67.75;101223.00;1971007;72;21007;-59
2022/03/10 06:40:15;;;;;;;33.80;14.87;;;;;;;1.42;67.93;101224.30;1983171;72;21429;-62
2022/03/10 06:42:44;;;;;;;37.78;16.97;;;;;;;1.40;68.11;101224.69;1973395;72;21031;-64
2022/03/10 06:45:12;;;;;;;40.40;16.02;;;;;;;1.43;68.06;101227.75;1971140;72;21111;-63
2022/03/10 06:47:41;;;;;;;44.08;17.90;;;;;;;1.47;68.09;101229.06;1973152;72;21490;-65
2022/03/10 06:50:11;;;;;;;32.95;16.42;;;;;;;1.58;67.92;101224.38;1974296;72;21059;-60
2022/03/10 06:52:40;;;;;;;39.92;17.37;;;;;;;1.68;67.84;101223.58;1970440;72;21476;-60
2022/03/10 06:55:09;;;;;;;41.70;16.42;;;;;;;1.68;67.85;101227.04;1973980;73;21474;-64
2022/03/10 06:57:38;;;;;;;39.40;16.87;;;;;;;1.62;67.99;101224.83;1970147;72;21043;-61
2022/03/10 07:00:08;;;;;;;39.03;17.42;;;;;;;1.59;68.07;101218.34;1980954;71;21093;-63
2022/03/10 07:02:37;;;;;;;42.23;17.35;;;;;;;1.56;67.94;101216.58;1982844;71;21019;-63
2022/03/10 07:05:08;;;;;;;37.65;16.73;;;;;;;1.52;67.99;101218.28;1981092;72;21021;-63
2022/03/10 07:07:37;;;;;;;44.27;18.77;;;;;;;1.46;68.14;101216.96;1982427;71;21044;-61
2022/03/10 07:10:07;;;;;;;43.98;17.05;;;;;;;1.42;68.37;101216.52;1986257;71;21496;-61
2022/03/10 07:12:43;;;;;;;42.13;16.87;;;;;;;1.42;68.50;101218.22;1982638;71;21145;-62
2022/03/10 07:15:10;;;;;;;37.10;17.98;;;;;;;1.39;68.53;101211.30;1979897;71;21102;-62
2022/03/10 07:17:41;;;;;;;41.00;18.75;;;;;;;1.33;68.67;101209.97;1975773;71;21113;-62
2022/03/10 07:20:10;;;;;;;41.63;18.37;;;;;;;1.30;68.93;101211.23;1975580;72;21116;-62
2022/03/10 07:22:39;;;;;;;44.93;19.48;;;;;;;1.31;68.87;101215.55;1989654;72;21073;-60
2022/03/10 07:25:09;;;;;;;46.00;19.00;;;;;;;1.31;68.76;101216.84;1981124;71;21118;-61
2022/03/10 07:27:37;;;;;;;44.15;17.80;;;;;;;1.31;68.82;101212.95;1982116;71;21033;-61
2022/03/10 07:30:07;;;;;;;44.53;18.42;;;;;;;1.34;68.75;101215.58;1981048;71;21020;-62
2022/03/10 07:32:36;;;;;;;47.85;17.77;;;;;;;1.44;68.69;101213.50;1995065;71;21085;-64
2022/03/10 07:35:05;;;;;;;39.05;15.60;;;;;;;1.49;68.64;101205.72;2008522;71;21010;-64
2022/03/10 07:37:34;;;;;;;43.52;18.23;;;;;;;1.48;68.65;101202.70;1997244;71;21125;-66
2022/03/10 07:40:03;;;;;;;47.30;18.67;;;;;;;1.51;68.66;101203.59;2000164;71;21100;-63
2022/03/10 07:42:32;;;;;;;45.75;20.72;;;;;;;1.54;68.73;101202.29;1989569;71;21036;-64
2022/03/10 07:45:01;;;;;;;49.73;20.80;;;;;;;1.59;68.65;101207.96;1983039;71;21060;-63
2022/03/10 07:47:30;;;;;;;57.40;19.48;;;;;;;1.66;68.73;101199.31;1984249;71;21036;-61
2022/03/10 07:49:59;;;;;;;51.77;20.32;;;;;;;1.72;68.76;101200.66;1980454;72;21470;-62
2022/03/10 07:52:27;;;;;;;53.55;21.45;;;;;;;1.66;68.93;101199.31;1981141;71;21065;-63
2022/03/10 07:54:56;;;;;;;37.05;16.17;;;;;;;1.67;69.02;101194.14;1990444;71;21118;-61
2022/03/10 07:57:24;;;;;;;43.25;16.77;;;;;;;1.71;68.98;101190.69;2007476;71;21123;-62
2022/03/10 07:59:53;;;;;;;51.63;20.37;;;;;;;1.74;68.77;101193.75;2008258;71;21052;-61
2022/03/10 08:02:22;;;;;;;48.63;18.48;;;;;;;1.76;68.63;101185.53;2001868;71;21043;-61
2022/03/10 08:04:50;;;;;;;46.73;18.92;;;;;;;1.76;68.57;101195.92;2001329;71;21494;-61
2022/03/10 08:07:19;;;;;;;35.95;16.60;;;;;;;1.73;68.62;101192.00;1996509;71;21000;-60
2022/03/10 08:09:48;;;;;;;37.17;15.90;;;;;;;1.72;68.59;101191.58;1982919;71;21027;-61
2022/03/10 08:12:16;;;;;;;41.08;16.02;;;;;;;1.64;68.54;101194.55;1979835;71;21488;-61
2022/03/10 08:14:45;;;;;;;37.08;16.70;;;;;;;1.51;68.63;101198.41;1969851;72;21101;-57
2022/03/10 08:17:14;;;;;;;35.13;16.73;;;;;;;1.36;68.82;101187.91;1975049;72;21160;-61
2022/03/10 08:19:42;;;;;;;38.67;16.77;;;;;;;1.25;69.01;101194.77;1971238;72;21120;-62
2022/03/10 08:22:11;;;;;;;36.50;17.77;;;;;;;1.11;69.52;101189.06;1968092;72;21497;-62
2022/03/10 08:24:41;;;;;;;34.35;15.35;;;;;;;1.03;69.88;101191.15;1973244;72;21572;-60
2022/03/10 08:27:09;;;;;;;35.88;15.48;;;;;;;0.96;69.98;101192.41;1969816;72;21042;-61
2022/03/10 08:29:38;;;;;;;34.00;14.78;;;;;;;0.98;69.91;101191.13;1981080;71;21004;-60
2022/03/10 08:32:08;;;;;;;32.78;15.28;;;;;;;1.08;70.08;101188.17;2002560;70;21058;-62
2022/03/10 08:34:38;;;;;;;42.38;16.77;;;;;;;1.09;70.17;101186.89;2018213;70;21039;-62
2022/03/10 08:37:07;;;;;;;35.68;15.50;;;;;;;1.18;70.11;101189.09;2009105;71;21095;-61
2022/03/10 08:39:36;;;;;;;25.00;10.55;;;;;;;1.25;69.83;101188.28;2005511;70;21043;-61
2022/03/10 08:42:06;;;;;;;44.03;18.32;;;;;;;1.30;69.90;101182.70;2006098;70;21027;-61
2022/03/10 08:44:35;;;;;;;45.95;19.87;;;;;;;1.35;69.91;101185.75;2004422;70;21032;-61
2022/03/10 08:47:04;;;;;;;45.40;20.85;;;;;;;1.38;70.08;101184.89;2004649;70;21124;-62
2022/03/10 08:49:33;;;;;;;46.02;19.50;;;;;;;1.44;70.15;101186.25;1975038;72;21117;-61
2022/03/10 08:52:01;;;;;;;45.50;19.48;;;;;;;1.50;70.25;101186.27;1974706;72;21051;-62
2022/03/10 08:54:30;;;;;;;45.23;19.37;;;;;;;1.44;70.74;101187.95;1980053;71;21446;-59
2022/03/10 08:56:59;;;;;;;42.43;18.20;;;;;;;1.42;70.76;101185.38;1975309;71;21000;-64
2022/03/10 08:59:27;;;;;;;47.45;19.40;;;;;;;1.42;70.72;101187.97;1960908;71;21050;-63
2022/03/10 09:01:56;;;;;;;36.65;13.88;;;;;;;1.48;70.65;101182.80;1951610;72;21113;-60
2022/03/10 09:04:26;;;;;;;48.52;21.37;;;;;;;1.62;70.28;101183.30;1964234;73;20994;-64
2022/03/10 09:06:54;;;;;;;46.05;18.55;;;;;;;1.60;70.14;101185.02;1961717;72;21030;-62
2022/03/10 09:09:24;;;;;;;45.23;17.62;;;;;;;1.56;70.03;101183.27;1986865;71;21109;-63
2022/03/10 09:11:52;;;;;;;49.20;18.30;;;;;;;1.57;70.08;101179.80;2012535;70;21044;-62
2022/03/10 09:14:21;;;;;;;46.80;19.57;;;;;;;1.54;70.13;101190.61;2009087;70;21032;-63
2022/03/10 09:16:52;;;;;;;38.73;15.63;;;;;;;1.57;70.18;101183.70;1994240;70;21161;-61
2022/03/10 09:19:20;;;;;;;34.15;14.40;;;;;;;1.56;70.22;101183.27;1955039;71;21176;-62
2022/03/10 09:21:49;;;;;;;43.28;17.07;;;;;;;1.50;70.31;101184.11;1975910;71;21596;-63
2022/03/10 09:24:18;;;;;;;41.50;16.65;;;;;;;1.39;70.63;101186.64;1973086;72;21010;-60
2022/03/10 09:26:46;;;;;;;41.45;17.77;;;;;;;1.32;70.77;101182.27;1970119;72;21599;-59
2022/03/10 09:29:15;;;;;;;40.88;16.55;;;;;;;1.27;70.77;101185.26;1972519;72;21086;-59
2022/03/10 09:31:44;;;;;;;37.48;14.43;;;;;;;1.20;70.82;101186.08;1971366;71;21120;-60
2022/03/10 09:34:13;;;;;;;41.02;16.48;;;;;;;1.11;71.13;101187.77;1985301;71;21032;-59
2022/03/10 09:36:41;;;;;;;39.73;15.53;;;;;;;1.05;71.19;101190.32;1977816;71;21126;-60
2022/03/10 09:39:10;;;;;;;41.25;16.75;;;;;;;1.06;71.27;101192.48;1977929;72;21027;-59
2022/03/10 09:41:39;;;;;;;34.60;13.72;;;;;;;1.12;71.17;101193.81;1982390;72;21458;-61
2022/03/10 09:44:17;;;;;;;36.42;14.60;;;;;;;1.20;71.06;101192.56;1967007;71;21045;-58
2022/03/10 09:46:51;;;;;;;39.63;16.35;;;;;;;1.21;70.95;101192.58;1963289;71;21101;-58
2022/03/10 09:49:21;;;;;;;34.05;14.33;;;;;;;1.15;70.95;101190.81;1997676;71;21459;-58
2022/03/10 09:51:50;;;;;;;28.60;11.90;;;;;;;1.12;71.22;101189.92;2001361;70;21020;-59
2022/03/10 09:54:19;;;;;;;33.35;12.95;;;;;;;1.07;71.12;101191.61;1982317;71;21149;-59
2022/03/10 09:56:49;;;;;;;34.85;13.88;;;;;;;1.06;71.01;101197.23;1990203;71;21113;-59
2022/03/10 09:59:20;;;;;;;38.92;15.72;;;;;;;1.04;71.02;101191.61;2005429;70;21478;-58
2022/03/10 10:01:49;;;;;;;33.08;12.65;;;;;;;0.99;71.16;101190.26;1998746;71;21499;-57
2022/03/10 10:04:21;;;;;;;34.23;13.22;;;;;;;0.94;71.24;101190.64;1961442;72;21058;-59
2022/03/10 10:07:04;;;;;;;31.68;14.38;;;;;;;0.85;71.48;101190.16;1981483;70;21129;-61
2022/03/10 10:09:47;;;;;;;30.17;12.88;;;;;;;0.91;71.44;101186.75;2003666;70;21494;-60
2022/03/10 10:12:17;;;;;;;31.17;13.68;;;;;;;0.93;71.43;101186.33;1992278;70;21152;-67
2022/03/10 10:14:47;;;;;;;33.38;12.55;;;;;;;0.92;71.75;101185.87;1960422;71;21504;-60
2022/03/10 10:29:39;;;;;;;36.48;15.23;;;;;;;1.23;73.42;101180.92;1985919;71;28387;-57
2022/03/10 10:32:08;;;;;;;36.00;14.60;;;;;;;1.20;72.67;101182.19;1942663;73;21557;-54
2022/03/10 10:34:37;;;;;;;34.15;11.48;;;;;;;1.17;72.32;101183.48;1947586;73;21180;-55
2022/03/10 10:37:06;;;;;;;23.80;9.90;;;;;;;1.15;72.12;101180.88;1938125;73;21062;-51
2022/03/10 10:39:38;;;;;;;36.10;14.30;;;;;;;1.10;71.90;101173.48;1937286;73;21544;-54
2022/03/10 10:42:09;;;;;;;28.98;12.07;;;;;;;1.03;71.94;101173.85;1930151;74;21082;-56
2022/03/10 10:44:38;;;;;;;33.08;13.15;;;;;;;0.92;72.12;101175.09;1932347;73;21034;-58
2022/03/10 10:47:07;;;;;;;29.72;13.28;;;;;;;0.84;72.30;101181.94;1940059;73;21067;-57
2022/03/10 10:49:36;;;;;;;34.38;11.97;;;;;;;0.78;72.43;101178.44;1953300;73;21028;-58
2022/03/10 10:52:09;;;;;;;33.55;13.00;;;;;;;0.76;72.56;101180.58;1943415;73;21118;-59
2022/03/10 10:54:38;;;;;;;33.20;13.07;;;;;;;0.80;72.56;101175.43;1952099;73;21539;-58
2022/03/10 10:57:06;;;;;;;34.83;13.68;;;;;;;0.82;72.31;101176.31;1934951;73;21051;-60
2022/03/10 10:59:45;;;;;;;35.78;13.68;;;;;;;0.85;72.24;101177.20;1946771;73;21024;-61
2022/03/10 11:02:17;;;;;;;44.08;15.55;;;;;;;0.87;72.40;101170.73;1962225;73;21024;-60
2022/03/10 11:04:51;;;;;;;35.70;11.60;;;;;;;0.88;72.27;101169.42;1962245;73;21090;-59
2022/03/10 11:07:22;;;;;;;27.50;12.75;;;;;;;0.91;72.13;101170.76;1962428;73;21028;-61
2022/03/10 11:09:55;;;;;;;41.05;15.45;;;;;;;0.94;72.21;101166.01;1962101;73;21119;-60
2022/03/10 11:12:25;;;;;;;37.90;13.88;;;;;;;0.96;72.43;101165.63;1944077;73;21109;-60
2022/03/10 11:14:53;;;;;;;41.40;15.10;;;;;;;1.03;72.36;101167.38;1905757;73;21526;-63
2022/03/10 11:17:22;;;;;;;39.78;16.70;;;;;;;1.11;72.44;101168.31;1939681;73;20991;-62
2022/03/10 11:19:54;;;;;;;34.45;14.73;;;;;;;1.11;72.25;101164.42;1935589;74;21449;-61
2022/03/10 11:22:46;;;;;;;43.67;15.43;;;;;;;1.08;72.18;101168.28;1938054;73;21491;-63
2022/03/10 11:25:21;;;;;;;43.60;16.37;;;;;;;1.11;72.16;101170.91;1948532;73;21507;-62
2022/03/10 11:28:05;;;;;;;37.25;14.78;;;;;;;1.18;72.35;101170.53;1951862;73;21031;-64
2022/03/10 11:30:34;;;;;;;;;;;;;;;1.15;72.51;101170.50;1961070;73;21051;-62
2022/03/10 11:33:09;;;;;;;36.50;14.65;;;;;;;1.21;72.45;101178.75;1957891;73;20143;-58
2022/03/10 11:35:43;;;;;;;27.27;10.55;;;;;;;1.21;72.38;101175.71;1933899;74;21553;-59
2022/03/10 11:38:14;;;;;;;42.25;17.02;;;;;;;1.18;72.54;101173.53;1933498;74;21037;-61
2022/03/10 11:40:48;;;;;;;44.35;16.00;;;;;;;1.08;72.78;101178.66;1934100;74;21005;-59
2022/03/10 11:43:34;;;;;;;33.95;14.00;;;;;;;1.02;72.97;101190.29;1933836;74;21024;-61
2022/03/10 11:46:21;;;;;;;40.95;15.95;;;;;;;1.03;73.08;101176.88;1933846;74;20993;-60
2022/03/10 11:49:11;;;;;;;34.45;13.58;;;;;;;1.00;73.18;101174.27;1882584;74;21054;-63
2022/03/10 11:51:45;;;;;;;42.10;15.50;;;;;;;1.05;73.19;101176.47;1904308;75;21106;-65
2022/03/10 11:54:19;;;;;;;24.27;9.53;;;;;;;1.10;73.18;101179.53;1900095;75;21060;-65
2022/03/10 11:56:59;;;;;;;36.35;14.58;;;;;;;1.03;73.33;101171.70;1900782;75;21033;-65
2022/03/10 11:59:26;;;;;;;42.48;17.65;;;;;;;0.97;73.27;101176.41;1899504;75;21471;-67